Time;durP1;ratioP1;P1;durP2;ratioP2;P2;SDS_P1;SDS_P2;PMS_P1;PMS_P2;Temp;Humidity;BMP_temperature;BMP_pressure;BME280_temperature;BME280_humidity;BME280_pressure;Samples;Min_cycle;Max_cycle;Signal;HPM_P1;HPM_P2
2023/09/09 00:00:36;;;;;;;9.07;6.23;;;13.70;99.90;;;;;;5051972;28;20187;-72
2023/09/09 00:03:01;;;;;;;12.07;6.20;;;13.70;99.90;;;;;;5051867;28;20179;-72
2023/09/09 00:05:30;;;;;;;12.17;6.77;;;13.70;99.90;;;;;;5051667;28;20817;-71
2023/09/09 00:07:55;;;;;;;14.83;6.90;;;13.60;99.90;;;;;;5050790;28;20180;-70
2023/09/09 00:10:21;;;;;;;11.13;7.00;;;13.50;99.90;;;;;;5051757;28;20190;-70
2023/09/09 00:12:46;;;;;;;14.70;6.77;;;13.50;99.90;;;;;;5050310;28;20329;-71
2023/09/09 00:15:12;;;;;;;11.70;6.37;;;13.50;99.90;;;;;;5051667;28;20218;-70
2023/09/09 00:17:38;;;;;;;10.60;6.53;;;13.40;99.90;;;;;;5053177;28;20301;-71
2023/09/09 00:20:14;;;;;;;11.77;6.60;;;13.30;99.90;;;;;;5051694;28;20597;-71
2023/09/09 00:22:40;;;;;;;10.33;6.67;;;13.20;99.90;;;;;;5051504;28;20240;-71
2023/09/09 00:25:06;;;;;;;10.93;6.97;;;13.10;99.90;;;;;;5051560;28;20242;-70
2023/09/09 00:27:32;;;;;;;11.50;7.27;;;13.10;99.90;;;;;;5050662;28;20175;-71
2023/09/09 00:29:58;;;;;;;10.10;6.80;;;13.10;99.90;;;;;;5051495;28;20186;-71
2023/09/09 00:32:23;;;;;;;10.27;6.77;;;13.00;99.90;;;;;;5051445;28;20260;-71
2023/09/09 00:34:49;;;;;;;15.37;6.67;;;13.00;99.90;;;;;;5051322;28;20199;-71
2023/09/09 00:37:14;;;;;;;12.73;6.70;;;13.00;99.90;;;;;;5058967;28;20683;-71
2023/09/09 00:39:40;;;;;;;12.47;6.70;;;13.00;99.90;;;;;;5069800;28;20185;-70
2023/09/09 00:42:06;;;;;;;15.70;6.70;;;13.00;99.90;;;;;;5071036;28;20178;-71
2023/09/09 00:44:31;;;;;;;11.30;6.83;;;12.90;99.90;;;;;;5071173;28;20204;-72
2023/09/09 00:46:58;;;;;;;11.57;6.80;;;12.90;99.90;;;;;;5070597;28;20236;-70
2023/09/09 00:49:23;;;;;;;9.13;6.33;;;12.90;99.90;;;;;;5071048;28;20605;-71
2023/09/09 00:51:49;;;;;;;12.00;6.50;;;12.90;99.90;;;;;;5069775;28;20192;-71
2023/09/09 00:54:15;;;;;;;12.70;6.23;;;12.90;99.90;;;;;;5071074;28;20224;-70
2023/09/09 00:56:42;;;;;;;9.97;6.00;;;12.90;99.90;;;;;;5069663;28;20182;-71
2023/09/09 00:59:10;;;;;;;14.83;6.87;;;12.90;99.90;;;;;;5070801;28;20198;-71
2023/09/09 01:01:36;;;;;;;10.57;6.17;;;12.90;99.90;;;;;;5070921;28;20175;-71
2023/09/09 01:04:02;;;;;;;14.03;6.00;;;12.90;99.90;;;;;;5071030;28;20360;-70
2023/09/09 01:06:28;;;;;;;9.27;6.30;;;12.90;99.90;;;;;;5070719;28;20277;-71
2023/09/09 01:08:54;;;;;;;9.73;5.90;;;12.80;99.90;;;;;;5070423;28;20699;-71
2023/09/09 01:11:20;;;;;;;11.03;6.47;;;12.80;99.90;;;;;;5070737;28;20651;-71
2023/09/09 01:13:45;;;;;;;14.00;6.60;;;12.80;99.90;;;;;;5070755;28;20174;-71
2023/09/09 01:16:12;;;;;;;13.90;6.10;;;12.70;99.90;;;;;;5070707;28;20234;-71
2023/09/09 01:18:38;;;;;;;10.17;6.00;;;12.70;99.90;;;;;;5070019;28;20236;-71
2023/09/09 01:21:10;;;;;;;13.53;6.93;;;12.70;99.90;;;;;;5070678;28;20198;-71
2023/09/09 01:23:36;;;;;;;10.00;6.67;;;12.70;99.90;;;;;;5070728;28;20640;-71
2023/09/09 01:26:02;;;;;;;9.77;6.07;;;12.60;99.90;;;;;;5070664;28;20606;-71
2023/09/09 01:28:28;;;;;;;11.00;6.20;;;12.60;99.90;;;;;;5069887;28;20187;-71
2023/09/09 01:30:53;;;;;;;9.83;6.40;;;12.50;99.90;;;;;;5070526;28;20212;-70
2023/09/09 01:33:19;;;;;;;11.57;7.00;;;12.60;99.90;;;;;;5070681;28;20251;-70
2023/09/09 01:35:46;;;;;;;14.43;6.70;;;12.50;99.90;;;;;;5070492;28;20575;-71
2023/09/09 01:38:12;;;;;;;9.80;6.10;;;12.60;99.90;;;;;;5069862;28;20226;-71
2023/09/09 01:40:38;;;;;;;9.90;5.83;;;12.50;99.90;;;;;;5070466;28;20204;-71
2023/09/09 01:43:04;;;;;;;10.13;6.47;;;12.50;99.90;;;;;;5070587;28;20179;-71
2023/09/09 01:45:29;;;;;;;8.03;5.67;;;12.50;99.90;;;;;;5070492;28;20285;-71
2023/09/09 01:47:56;;;;;;;8.90;6.00;;;12.40;99.90;;;;;;5069764;28;20185;-71
2023/09/09 01:50:22;;;;;;;10.23;5.70;;;12.30;99.90;;;;;;5070396;28;20643;-71
2023/09/09 01:52:47;;;;;;;8.47;5.47;;;12.30;99.90;;;;;;5070419;28;20268;-71
2023/09/09 01:55:13;;;;;;;14.47;6.10;;;12.30;99.90;;;;;;5070445;28;20534;-71
2023/09/09 01:57:39;;;;;;;12.23;6.67;;;12.30;99.90;;;;;;5069576;28;20202;-71
2023/09/09 02:00:09;;;;;;;9.57;5.77;;;12.20;99.90;;;;;;5070430;28;20231;-71
2023/09/09 02:02:35;;;;;;;8.03;5.70;;;12.20;99.90;;;;;;5070290;28;20167;-71
2023/09/09 02:05:01;;;;;;;10.57;6.77;;;12.30;99.90;;;;;;5070251;28;20209;-70
2023/09/09 02:07:27;;;;;;;9.60;6.10;;;12.30;99.90;;;;;;5069685;28;20206;-71
2023/09/09 02:09:53;;;;;;;9.40;6.37;;;12.20;99.90;;;;;;5069137;28;20225;-71
2023/09/09 02:12:18;;;;;;;11.00;6.27;;;12.20;99.90;;;;;;5070225;28;20179;-71
2023/09/09 02:14:44;;;;;;;9.97;6.20;;;12.10;99.90;;;;;;5070167;28;20662;-71
2023/09/09 02:17:11;;;;;;;8.33;5.37;;;12.10;99.90;;;;;;5069361;28;20660;-71
2023/09/09 02:19:36;;;;;;;10.37;5.70;;;12.20;99.90;;;;;;5068791;28;20171;-71
2023/09/09 02:22:02;;;;;;;8.30;5.93;;;12.10;99.90;;;;;;5068990;28;20185;-71
2023/09/09 02:24:28;;;;;;;10.00;6.30;;;12.10;99.90;;;;;;5070125;28;20183;-71
2023/09/09 02:26:53;;;;;;;8.87;5.90;;;12.00;99.90;;;;;;5068196;28;20236;-71
2023/09/09 02:29:19;;;;;;;12.20;5.83;;;12.10;99.90;;;;;;5068884;28;20193;-71
2023/09/09 02:31:44;;;;;;;7.77;5.30;;;12.00;99.90;;;;;;5070070;28;20328;-71
2023/09/09 02:34:10;;;;;;;10.70;6.23;;;12.00;99.90;;;;;;5070013;28;20762;-71
2023/09/09 02:36:36;;;;;;;11.27;6.67;;;12.00;99.90;;;;;;5070114;28;20552;-71
2023/09/09 02:39:01;;;;;;;8.83;5.93;;;11.90;99.90;;;;;;5068071;28;20587;-71
2023/09/09 02:41:27;;;;;;;9.40;5.40;;;12.00;99.90;;;;;;5071156;28;20171;-71
2023/09/09 02:43:52;;;;;;;9.70;6.20;;;12.00;99.90;;;;;;5073499;28;20193;-71
2023/09/09 02:46:20;;;;;;;13.47;6.17;;;11.90;99.90;;;;;;5073429;28;20202;-71
2023/09/09 02:48:46;;;;;;;10.77;5.47;;;11.90;99.90;;;;;;5072727;28;20647;-71
2023/09/09 02:51:11;;;;;;;8.87;6.00;;;11.90;99.90;;;;;;5073425;28;20198;-71
2023/09/09 02:53:37;;;;;;;8.83;5.80;;;11.90;99.90;;;;;;5073283;28;20174;-72
2023/09/09 02:56:02;;;;;;;11.17;6.17;;;11.90;99.90;;;;;;5073133;28;20687;-72
2023/09/09 02:58:28;;;;;;;11.03;6.20;;;11.90;99.90;;;;;;5071357;28;20857;-71
2023/09/09 03:01:01;;;;;;;8.50;5.70;;;11.80;99.90;;;;;;5073107;28;20200;-72
2023/09/09 03:03:27;;;;;;;11.33;5.73;;;11.70;99.90;;;;;;5073188;28;20178;-71
2023/09/09 03:05:52;;;;;;;12.77;5.90;;;11.70;99.90;;;;;;5073019;28;20228;-72
2023/09/09 03:08:18;;;;;;;9.93;6.27;;;11.60;99.90;;;;;;5072353;28;20277;-71
2023/09/09 03:10:43;;;;;;;9.57;5.70;;;11.60;99.90;;;;;;5073029;28;20206;-71
2023/09/09 03:13:09;;;;;;;10.30;6.20;;;11.60;99.90;;;;;;5072814;28;20183;-71
2023/09/09 03:15:34;;;;;;;8.90;5.53;;;11.60;99.90;;;;;;5072825;28;20206;-71
2023/09/09 03:18:00;;;;;;;9.33;6.00;;;11.60;99.90;;;;;;5072021;28;20218;-71
2023/09/09 03:20:25;;;;;;;9.90;6.00;;;11.60;99.90;;;;;;5072887;28;20261;-71
2023/09/09 03:22:51;;;;;;;11.40;5.77;;;11.50;99.90;;;;;;5072866;28;20667;-71
2023/09/09 03:25:17;;;;;;;8.17;5.40;;;11.50;99.90;;;;;;5071434;28;20568;-71
2023/09/09 03:27:42;;;;;;;8.67;5.77;;;11.50;99.90;;;;;;5072066;28;20270;-71
2023/09/09 03:30:09;;;;;;;10.53;6.47;;;11.50;99.90;;;;;;5072856;28;20179;-71
2023/09/09 03:32:34;;;;;;;13.33;5.53;;;11.50;99.90;;;;;;5072546;28;20182;-71
2023/09/09 03:35:00;;;;;;;9.43;5.50;;;11.40;99.90;;;;;;5072501;28;20575;-71
2023/09/09 03:37:25;;;;;;;11.50;6.33;;;11.40;99.90;;;;;;5070544;28;20213;-71
2023/09/09 03:39:51;;;;;;;12.23;6.10;;;11.50;99.90;;;;;;5072505;28;20202;-72
2023/09/09 03:42:16;;;;;;;11.30;6.60;;;11.40;99.90;;;;;;5072324;28;20179;-71
2023/09/09 03:44:42;;;;;;;12.90;6.30;;;11.40;99.90;;;;;;5072235;28;20679;-71
2023/09/09 03:47:07;;;;;;;13.23;6.83;;;11.30;99.90;;;;;;5071669;28;20178;-71
2023/09/09 03:49:33;;;;;;;14.20;6.60;;;11.30;99.90;;;;;;5072288;28;20178;-71
2023/09/09 03:51:59;;;;;;;11.53;6.70;;;11.30;99.90;;;;;;5070919;28;20198;-71
2023/09/09 03:54:24;;;;;;;11.80;6.73;;;11.30;99.90;;;;;;5072062;28;20643;-71
2023/09/09 03:56:50;;;;;;;13.27;7.03;;;11.30;99.90;;;;;;5071529;28;20725;-72
2023/09/09 03:59:16;;;;;;;12.37;6.80;;;11.30;99.90;;;;;;5071793;28;20198;-72
2023/09/09 04:01:41;;;;;;;13.30;6.90;;;11.30;99.90;;;;;;5071964;28;20198;-71
2023/09/09 04:04:07;;;;;;;14.57;7.37;;;11.30;99.90;;;;;;5071973;28;20543;-71
2023/09/09 04:06:33;;;;;;;16.10;7.97;;;11.30;99.90;;;;;;5070899;28;20202;-71
2023/09/09 04:08:58;;;;;;;17.73;7.23;;;11.30;99.90;;;;;;5071277;28;20167;-71
2023/09/09 04:11:24;;;;;;;16.57;7.90;;;11.20;99.90;;;;;;5071822;28;20652;-71
2023/09/09 04:13:49;;;;;;;21.00;8.23;;;11.20;99.90;;;;;;5071817;28;20178;-72
2023/09/09 04:16:15;;;;;;;19.00;8.53;;;11.10;99.90;;;;;;5071525;28;20214;-71
2023/09/09 04:18:41;;;;;;;18.20;8.17;;;11.10;99.90;;;;;;5070861;28;20198;-71
2023/09/09 04:21:06;;;;;;;17.97;7.70;;;11.10;99.90;;;;;;5070244;28;20208;-71
2023/09/09 04:23:32;;;;;;;17.77;8.43;;;11.10;99.90;;;;;;5071673;28;20181;-71
2023/09/09 04:25:58;;;;;;;22.30;10.50;;;11.10;99.90;;;;;;5070698;28;20505;-71
2023/09/09 04:28:27;;;;;;;20.43;8.87;;;11.10;99.90;;;;;;5070795;28;20236;-71
2023/09/09 04:30:53;;;;;;;17.10;8.77;;;11.00;99.90;;;;;;5071375;28;20193;-71
2023/09/09 04:33:19;;;;;;;19.43;8.80;;;11.10;99.90;;;;;;5071438;28;20179;-71
2023/09/09 04:35:44;;;;;;;17.60;8.33;;;11.00;99.90;;;;;;5070068;28;20772;-72
2023/09/09 04:38:10;;;;;;;17.53;8.53;;;11.00;99.90;;;;;;5070583;28;20210;-71
2023/09/09 04:40:38;;;;;;;20.60;8.23;;;11.00;99.90;;;;;;5071217;28;20266;-71
2023/09/09 04:43:03;;;;;;;14.27;7.53;;;11.00;99.90;;;;;;5071087;28;20530;-71
2023/09/09 04:45:29;;;;;;;20.00;8.00;;;11.00;99.90;;;;;;5071099;28;20260;-71
2023/09/09 04:47:54;;;;;;;22.40;8.27;;;11.00;99.90;;;;;;5070490;28;20667;-71
2023/09/09 04:50:20;;;;;;;19.07;8.13;;;11.00;99.90;;;;;;5069962;28;20188;-71
2023/09/09 04:52:47;;;;;;;16.80;7.80;;;11.00;99.90;;;;;;5069990;28;20627;-71
2023/09/09 04:55:13;;;;;;;14.73;8.00;;;11.00;99.90;;;;;;5071059;28;20251;-71
2023/09/09 04:57:40;;;;;;;16.57;7.90;;;11.00;99.90;;;;;;5069139;28;20209;-72
2023/09/09 05:00:07;;;;;;;17.00;8.00;;;11.00;99.90;;;;;;5070663;28;20276;-71
2023/09/09 05:02:37;;;;;;;20.33;8.63;;;11.00;99.90;;;;;;5069549;28;20178;-72
2023/09/09 05:05:05;;;;;;;16.60;7.97;;;11.00;99.90;;;;;;5069149;28;20704;-71
2023/09/09 05:07:35;;;;;;;12.90;7.40;;;10.90;99.90;;;;;;5069548;28;20187;-72
2023/09/09 05:10:04;;;;;;;13.10;7.00;;;10.90;99.90;;;;;;5070106;28;20257;-71
2023/09/09 05:12:30;;;;;;;15.53;7.27;;;10.90;99.90;;;;;;5069850;28;20228;-72
2023/09/09 05:14:55;;;;;;;13.00;6.80;;;10.90;99.90;;;;;;5069944;28;20277;-72
2023/09/09 05:17:21;;;;;;;11.47;6.67;;;10.90;99.90;;;;;;5069131;28;20699;-71
2023/09/09 05:19:46;;;;;;;14.33;7.53;;;11.00;99.90;;;;;;5070002;28;20595;-71
2023/09/09 05:22:12;;;;;;;12.93;7.50;;;11.00;99.90;;;;;;5068715;28;20178;-71
2023/09/09 05:24:37;;;;;;;18.03;7.70;;;10.90;99.90;;;;;;5069751;28;20226;-71
2023/09/09 05:27:03;;;;;;;14.77;7.70;;;10.90;99.90;;;;;;5069033;28;20210;-71
2023/09/09 05:29:29;;;;;;;12.87;7.53;;;10.90;99.90;;;;;;5069727;28;20178;-72
2023/09/09 05:31:54;;;;;;;17.23;7.03;;;11.00;99.90;;;;;;5069910;28;20183;-72
2023/09/09 05:34:20;;;;;;;14.80;7.30;;;11.00;99.90;;;;;;5068808;28;20203;-71
2023/09/09 05:36:46;;;;;;;16.20;7.20;;;11.10;99.90;;;;;;5069371;28;20178;-72
2023/09/09 05:39:12;;;;;;;13.57;6.87;;;11.20;99.90;;;;;;5069535;28;20589;-72
2023/09/09 05:41:38;;;;;;;19.20;7.77;;;11.20;99.90;;;;;;5069311;28;20213;-72
2023/09/09 05:44:03;;;;;;;14.17;7.57;;;11.30;99.90;;;;;;5069683;28;20179;-72
2023/09/09 05:46:29;;;;;;;13.67;7.60;;;11.20;99.90;;;;;;5069884;28;20629;-71
2023/09/09 05:48:55;;;;;;;16.47;7.23;;;11.20;99.90;;;;;;5068001;28;20175;-71
2023/09/09 05:51:20;;;;;;;14.47;7.53;;;11.20;99.90;;;;;;5069646;28;20192;-70
2023/09/09 05:53:47;;;;;;;13.47;7.13;;;11.30;99.90;;;;;;5069790;28;20183;-72
2023/09/09 05:56:13;;;;;;;12.47;6.70;;;11.30;99.90;;;;;;5069884;28;20248;-71
2023/09/09 05:58:39;;;;;;;10.70;6.50;;;11.40;99.90;;;;;;5068930;28;20673;-72
2023/09/09 06:01:05;;;;;;;13.03;6.80;;;11.40;99.90;;;;;;5069485;28;20178;-72
2023/09/09 06:03:32;;;;;;;10.37;6.57;;;11.50;99.90;;;;;;5069494;28;20182;-71
2023/09/09 06:05:57;;;;;;;12.63;6.93;;;11.70;99.90;;;;;;5069706;28;20194;-71
2023/09/09 06:08:23;;;;;;;10.97;5.67;;;11.70;99.90;;;;;;5068761;28;20183;-72
2023/09/09 06:10:49;;;;;;;10.13;6.03;;;11.80;99.90;;;;;;5069308;28;20547;-71
2023/09/09 06:13:14;;;;;;;11.60;6.30;;;11.80;99.90;;;;;;5069161;28;20178;-72
2023/09/09 06:15:40;;;;;;;12.13;6.67;;;11.90;99.90;;;;;;5069377;28;20210;-72
2023/09/09 06:18:05;;;;;;;9.47;6.20;;;12.00;99.90;;;;;;5072371;28;20221;-71
2023/09/09 06:20:31;;;;;;;9.93;6.73;;;12.20;99.90;;;;;;5072994;28;20186;-71
2023/09/09 06:22:56;;;;;;;10.27;6.20;;;12.30;99.90;;;;;;5073020;28;20233;-71
2023/09/09 06:25:22;;;;;;;9.90;6.27;;;12.40;99.90;;;;;;5071773;28;20214;-72
2023/09/09 06:27:47;;;;;;;9.70;6.20;;;12.50;99.90;;;;;;5072356;28;20297;-73
2023/09/09 06:30:13;;;;;;;13.63;7.27;;;12.70;99.90;;;;;;5072953;28;20605;-71
2023/09/09 06:32:39;;;;;;;8.93;5.90;;;12.90;99.90;;;;;;5072876;28;20708;-73
2023/09/09 06:35:05;;;;;;;12.37;6.47;;;13.10;99.90;;;;;;5071449;28;20198;-73
2023/09/09 06:37:31;;;;;;;8.83;6.17;;;13.40;99.90;;;;;;5072199;28;20304;-73
2023/09/09 06:39:56;;;;;;;13.20;6.53;;;13.60;99.90;;;;;;5071407;28;20274;-71
2023/09/09 06:42:22;;;;;;;10.50;5.90;;;13.80;99.90;;;;;;5072474;28;20183;-72
2023/09/09 06:44:48;;;;;;;9.23;6.27;;;14.10;99.90;;;;;;5072539;28;20210;-74
2023/09/09 06:47:13;;;;;;;10.50;6.30;;;14.20;99.90;;;;;;5072153;28;20185;-72
2023/09/09 06:49:39;;;;;;;10.60;6.00;;;14.30;99.90;;;;;;5071249;28;20175;-72
2023/09/09 06:52:05;;;;;;;8.50;5.97;;;14.50;99.90;;;;;;5072642;28;20491;-72
2023/09/09 06:54:30;;;;;;;12.70;6.30;;;14.60;99.90;;;;;;5072372;28;20175;-71
2023/09/09 06:56:56;;;;;;;11.00;5.77;;;14.90;99.90;;;;;;5072013;28;20765;-70
2023/09/09 06:59:21;;;;;;;9.57;6.00;;;15.10;99.90;;;;;;5072185;28;20206;-71
2023/09/09 07:01:47;;;;;;;18.80;9.10;;;15.40;99.90;;;;;;5072298;28;20528;-71
2023/09/09 07:04:13;;;;;;;15.47;8.70;;;15.90;99.90;;;;;;5072330;28;20228;-71
2023/09/09 07:06:38;;;;;;;8.97;5.90;;;16.50;99.90;;;;;;5072094;28;20209;-71
2023/09/09 07:09:04;;;;;;;8.33;5.20;;;16.80;99.90;;;;;;5071587;28;20243;-71
2023/09/09 07:11:29;;;;;;;8.17;5.50;;;17.30;99.90;;;;;;5072110;28;20183;-71
2023/09/09 07:13:55;;;;;;;9.60;5.53;;;17.80;99.90;;;;;;5072104;28;20690;-71
2023/09/09 07:16:22;;;;;;;6.90;5.20;;;18.10;99.90;;;;;;5071978;28;20628;-71
2023/09/09 07:18:47;;;;;;;7.70;5.47;;;18.30;99.90;;;;;;5071563;28;20198;-71
2023/09/09 07:21:13;;;;;;;7.73;4.93;;;18.70;99.90;;;;;;5071854;28;20272;-72
2023/09/09 07:23:39;;;;;;;8.93;5.47;;;19.10;99.90;;;;;;5072402;28;20177;-72
2023/09/09 07:26:05;;;;;;;9.50;5.63;;;19.20;99.90;;;;;;5071872;28;20240;-72
2023/09/09 07:28:31;;;;;;;13.47;7.00;;;18.80;99.90;;;;;;5071024;28;20190;-72
2023/09/09 07:31:01;;;;;;;8.80;5.40;;;18.90;99.90;;;;;;5071631;28;20186;-72
2023/09/09 07:33:27;;;;;;;9.93;5.07;;;19.40;99.90;;;;;;5071873;28;20163;-72
2023/09/09 07:35:53;;;;;;;9.70;5.40;;;19.80;99.90;;;;;;5071365;28;20433;-72
2023/09/09 07:38:18;;;;;;;8.10;4.80;;;20.30;99.90;;;;;;5070971;28;20213;-74
2023/09/09 07:40:44;;;;;;;7.00;5.07;;;20.70;99.90;;;;;;5071650;28;20399;-74
2023/09/09 07:43:09;;;;;;;11.40;4.90;;;21.10;99.90;;;;;;5071521;28;20183;-72
2023/09/09 07:45:35;;;;;;;7.67;4.77;;;21.50;99.90;;;;;;5071255;28;20198;-74
2023/09/09 07:48:00;;;;;;;7.07;4.67;;;21.80;99.90;;;;;;5071148;28;20176;-73
2023/09/09 07:50:26;;;;;;;7.40;4.80;;;21.80;99.90;;;;;;5071369;28;20280;-72
2023/09/09 07:52:51;;;;;;;9.47;5.23;;;22.00;99.90;;;;;;5070980;28;20422;-73
2023/09/09 07:55:17;;;;;;;9.27;5.00;;;22.70;99.90;;;;;;5071261;28;20428;-74
2023/09/09 07:57:43;;;;;;;8.67;4.67;;;23.00;99.90;;;;;;5071288;28;20207;-75
2023/09/09 08:00:08;;;;;;;6.80;4.90;;;23.40;99.90;;;;;;5071578;28;20524;-74
2023/09/09 08:02:35;;;;;;;7.47;4.93;;;23.00;99.90;;;;;;5069782;28;20190;-74
2023/09/09 08:05:02;;;;;;;10.23;5.27;;;22.80;99.90;;;;;;5071101;28;20194;-74
2023/09/09 08:07:27;;;;;;;8.47;4.60;;;22.50;99.90;;;;;;5070389;28;20213;-74
2023/09/09 08:09:53;;;;;;;12.77;4.73;;;22.50;99.90;;;;;;5071022;28;20640;-74
2023/09/09 08:12:19;;;;;;;9.07;4.47;;;22.60;99.90;;;;;;5070792;28;20703;-74
2023/09/09 08:14:44;;;;;;;7.73;4.77;;;22.90;99.90;;;;;;5070903;28;20598;-74
2023/09/09 08:17:10;;;;;;;8.23;4.70;;;22.90;99.90;;;;;;5070389;28;20197;-73
2023/09/09 08:19:36;;;;;;;8.50;4.75;;;23.20;99.90;;;;;;5070489;28;20529;-74
2023/09/09 08:22:01;;;;;;;6.70;4.90;;;23.50;99.90;;;;;;5070987;28;20185;-75
2023/09/09 08:24:27;;;;;;;8.97;4.70;;;23.70;99.90;;;;;;5069495;28;20182;-73
2023/09/09 08:26:52;;;;;;;10.80;6.20;;;24.00;99.90;;;;;;5070195;28;20181;-74
2023/09/09 08:29:18;;;;;;;24.10;11.02;;;24.70;99.90;;;;;;5070873;28;20445;-75
2023/09/09 08:31:47;;;;;;;13.60;8.70;;;25.90;99.90;;;;;;5070691;28;20908;-74
2023/09/09 08:34:12;;;;;;;6.67;4.40;;;26.70;99.90;;;;;;5070450;28;20188;-75
2023/09/09 08:36:38;;;;;;;10.37;4.83;;;27.30;99.90;;;;;;5069714;28;20421;-75
2023/09/09 08:39:04;;;;;;;6.00;4.20;;;28.10;99.90;;;;;;5069216;28;20459;-75
2023/09/09 08:41:49;;;;;;;6.87;4.20;;;28.60;99.90;;;;;;5070212;28;20292;-75
2023/09/09 08:44:42;;;;;;;7.20;4.33;;;28.80;99.90;;;;;;5070369;28;20151;-74
2023/09/09 08:47:07;;;;;;;9.97;5.17;;;29.30;99.90;;;;;;5069848;28;20757;-75
2023/09/09 08:49:35;;;;;;;5.25;3.95;;;29.50;99.90;;;;;;5070256;28;20182;-73
2023/09/09 08:52:16;;;;;;;11.48;4.38;;;29.90;99.90;;;;;;5070501;28;20170;-75
2023/09/09 08:54:42;;;;;;;5.28;3.75;;;30.10;99.90;;;;;;5070225;28;20201;-75
2023/09/09 08:57:07;;;;;;;9.30;4.13;;;30.30;99.90;;;;;;5069642;28;20254;-75
2023/09/09 08:59:34;;;;;;;7.53;4.35;;;30.40;99.90;;;;;;5069463;28;20464;-77
2023/09/09 09:02:01;;;;;;;11.43;4.28;;;30.70;99.90;;;;;;5068815;28;20308;-74
2023/09/09 09:04:28;;;;;;;8.95;4.57;;;30.70;99.90;;;;;;5070064;28;20178;-74
2023/09/09 09:06:57;;;;;;;9.25;3.92;;;30.70;99.90;;;;;;5069779;28;20175;-75
2023/09/09 09:09:23;;;;;;;6.53;4.28;;;30.90;99.90;;;;;;5068593;28;20647;-74
2023/09/09 09:11:49;;;;;;;8.05;4.45;;;31.00;99.90;;;;;;5068673;28;20184;-76
2023/09/09 09:14:14;;;;;;;6.22;4.50;;;31.40;99.90;;;;;;5069979;28;20184;-73
2023/09/09 09:16:41;;;;;;;6.70;3.72;;;31.60;99.90;;;;;;5069673;28;20186;-73
2023/09/09 09:19:17;;;;;;;6.15;4.18;;;31.80;99.90;;;;;;5069627;28;20206;-76
2023/09/09 09:21:43;;;;;;;9.15;4.03;;;31.70;99.90;;;;;;5070099;28;20600;-76
2023/09/09 09:24:09;;;;;;;6.35;4.00;;;31.70;99.90;;;;;;5069847;28;20200;-74
2023/09/09 09:26:35;;;;;;;8.45;3.83;;;31.70;99.90;;;;;;5069429;28;20205;-75
2023/09/09 09:29:04;;;;;;;8.73;4.20;;;31.70;99.90;;;;;;5069325;28;20246;-75
2023/09/09 09:31:30;;;;;;;8.93;4.28;;;31.60;99.90;;;;;;5069854;28;20176;-75
2023/09/09 09:33:57;;;;;;;11.43;4.32;;;31.70;99.90;;;;;;5069756;28;20624;-73
2023/09/09 09:36:23;;;;;;;6.75;4.18;;;31.80;99.90;;;;;;5069736;28;20194;-73
2023/09/09 09:38:49;;;;;;;6.88;5.10;;;31.80;99.90;;;;;;5068807;28;20200;-76
2023/09/09 09:41:17;;;;;;;5.97;4.40;;;31.80;99.90;;;;;;5069559;28;20218;-75
2023/09/09 09:43:44;;;;;;;6.25;4.70;;;31.90;99.90;;;;;;5069369;28;20406;-72
2023/09/09 09:46:20;;;;;;;8.27;4.22;;;32.10;99.90;;;;;;5069561;28;20210;-73
2023/09/09 09:48:46;;;;;;;6.00;4.13;;;32.40;99.90;;;;;;5068986;28;20262;-72
2023/09/09 09:51:12;;;;;;;6.15;4.43;;;32.90;99.90;;;;;;5072579;28;20604;-75
2023/09/09 09:53:49;;;;;;;10.23;4.47;;;33.30;99.90;;;;;;5073506;28;20175;-71
2023/09/09 09:56:16;;;;;;;6.32;3.92;;;33.50;99.90;;;;;;5073888;28;20548;-74
2023/09/09 09:58:44;;;;;;;9.82;4.00;;;33.40;99.90;;;;;;5073015;28;20283;-76
2023/09/09 10:01:10;;;;;;;5.65;3.78;;;33.10;99.90;;;;;;5074156;28;20189;-72
2023/09/09 10:03:48;;;;;;;5.47;3.42;;;33.30;99.90;;;;;;5071898;28;20538;-73
2023/09/09 10:06:21;;;;;;;10.10;3.97;;;33.30;99.90;;;;;;5071928;28;20801;-73
2023/09/09 10:08:55;;;;;;;5.18;3.67;;;33.50;99.90;;;;;;5072798;28;20625;-75
2023/09/09 10:11:24;;;;;;;7.43;3.70;;;33.60;99.90;;;;;;5073416;28;20228;-74
2023/09/09 10:14:04;;;;;;;7.85;3.65;;;33.70;99.90;;;;;;5074321;28;20537;-80
2023/09/09 10:16:32;;;;;;;9.98;3.83;;;34.10;99.90;;;;;;5074696;28;20202;-77
2023/09/09 10:18:59;;;;;;;6.53;3.63;;;34.50;99.90;;;;;;5075195;28;20297;-78
2023/09/09 10:21:26;;;;;;;8.40;4.25;;;34.90;99.90;;;;;;5074618;28;20170;-78
2023/09/09 10:23:54;;;;;;;5.47;3.67;;;34.50;99.90;;;;;;5073454;28;20533;-77
2023/09/09 10:26:21;;;;;;;5.88;3.50;;;34.80;99.90;;;;;;5073399;28;20256;-77
2023/09/09 10:28:49;;;;;;;5.47;3.65;;;35.00;99.90;;;;;;5072100;28;20168;-77
2023/09/09 10:31:15;;;;;;;5.78;3.50;;;35.10;99.90;;;;;;5073030;28;20773;-77
2023/09/09 10:33:42;;;;;;;5.82;3.60;;;35.00;99.90;;;;;;5072813;28;20183;-78
2023/09/09 10:36:09;;;;;;;8.70;4.20;;;34.90;99.90;;;;;;5072988;28;20195;-74
2023/09/09 10:38:34;;;;;;;10.55;3.88;;;34.80;99.90;;;;;;5072356;28;20205;-77
2023/09/09 10:41:03;;;;;;;6.30;4.03;;;34.90;99.90;;;;;;5073048;28;20182;-74
2023/09/09 10:43:29;;;;;;;5.53;3.63;;;34.60;99.90;;;;;;5071160;28;20171;-76
2023/09/09 10:45:55;;;;;;;5.55;3.67;;;34.80;99.90;;;;;;5071749;28;20216;-76
2023/09/09 10:48:21;;;;;;;7.50;3.42;;;34.70;99.90;;;;;;5071374;28;20224;-75
2023/09/09 10:50:51;;;;;;;7.32;3.70;;;34.50;99.90;;;;;;5071961;28;20301;-77
2023/09/09 10:53:27;;;;;;;6.68;3.90;;;34.60;99.90;;;;;;5071201;28;20170;-77
2023/09/09 10:55:55;;;;;;;9.52;4.00;;;34.70;99.90;;;;;;5073338;28;20685;-76
2023/09/09 10:58:30;;;;;;;5.53;3.88;;;34.30;99.90;;;;;;5071944;28;20222;-76
2023/09/09 11:00:57;;;;;;;8.38;3.85;;;34.20;99.90;;;;;;5073093;28;20241;-76
2023/09/09 11:03:27;;;;;;;8.25;4.22;;;34.20;99.90;;;;;;5071807;28;20256;-76
2023/09/09 11:05:59;;;;;;;5.18;4.00;;;34.10;99.90;;;;;;5072155;28;20186;-76
2023/09/09 11:08:41;;;;;;;8.15;4.25;;;33.80;99.90;;;;;;5072262;28;20166;-76
2023/09/09 11:11:09;;;;;;;9.45;4.82;;;33.80;99.90;;;;;;5072244;28;20244;-76
2023/09/09 11:13:42;;;;;;;6.68;4.28;;;33.70;99.90;;;;;;5071936;28;20265;-75
2023/09/09 11:16:31;;;;;;;11.55;4.05;;;33.70;99.90;;;;;;5071935;28;20603;-76
2023/09/09 11:19:02;;;;;;;5.72;3.90;;;33.50;99.90;;;;;;5071370;28;20185;-75
2023/09/09 11:21:32;;;;;;;8.73;4.47;;;33.40;99.90;;;;;;5072306;28;20154;-76
2023/09/09 11:23:58;;;;;;;6.53;4.07;;;33.30;99.90;;;;;;5071620;28;20198;-75
2023/09/09 11:26:24;;;;;;;8.60;4.13;;;33.20;99.90;;;;;;5071704;28;20235;-75
2023/09/09 11:28:52;;;;;;;8.30;4.40;;;33.40;99.90;;;;;;5071364;28;20224;-76
2023/09/09 11:31:18;;;;;;;6.57;3.67;;;33.60;99.90;;;;;;5071737;28;20170;-75
2023/09/09 11:33:44;;;;;;;6.22;3.75;;;33.60;99.90;;;;;;5071677;28;20197;-76
2023/09/09 11:36:09;;;;;;;10.30;3.47;;;33.50;99.90;;;;;;5071700;28;20533;-76
2023/09/09 11:38:38;;;;;;;6.78;3.70;;;33.50;99.90;;;;;;5070927;28;20315;-76
2023/09/09 11:41:03;;;;;;;9.75;3.92;;;33.60;99.90;;;;;;5072114;28;20327;-78
2023/09/09 11:43:29;;;;;;;6.55;4.00;;;33.80;99.90;;;;;;5073619;28;20205;-76
2023/09/09 11:45:56;;;;;;;8.45;3.97;;;34.00;99.90;;;;;;5071491;28;20227;-77
2023/09/09 11:48:22;;;;;;;5.25;3.53;;;33.80;99.90;;;;;;5071611;28;20660;-78
2023/09/09 11:50:50;;;;;;;7.55;4.07;;;33.70;99.90;;;;;;5071983;28;20295;-78
2023/09/09 11:53:18;;;;;;;7.13;4.43;;;33.90;99.90;;;;;;5070929;28;20511;-77
2023/09/09 11:55:43;;;;;;;5.88;4.05;;;34.00;99.90;;;;;;5071768;28;20236;-78
2023/09/09 11:58:09;;;;;;;10.88;4.68;;;33.90;99.90;;;;;;5071713;28;20193;-77
2023/09/09 12:00:35;;;;;;;7.80;4.40;;;33.90;99.90;;;;;;5072159;28;20233;-77
2023/09/09 12:03:00;;;;;;;7.40;4.40;;;33.90;99.90;;;;;;5072095;28;20260;-77
2023/09/09 12:05:31;;;;;;;7.57;3.72;;;34.00;99.90;;;;;;5070739;28;20241;-76
2023/09/09 12:07:58;;;;;;;6.85;4.55;;;34.00;99.90;;;;;;5070454;28;20162;-75
2023/09/09 12:10:33;;;;;;;7.70;3.90;;;33.90;99.90;;;;;;5070029;28;20574;-77
2023/09/09 12:12:59;;;;;;;12.10;4.45;;;33.80;99.90;;;;;;5070948;28;20224;-76
2023/09/09 12:15:26;;;;;;;7.00;4.13;;;33.70;99.90;;;;;;5069834;28;20528;-75
2023/09/09 12:17:52;;;;;;;8.65;3.60;;;34.00;99.90;;;;;;5070194;28;20206;-78
2023/09/09 12:20:17;;;;;;;5.35;3.55;;;34.20;99.90;;;;;;5069462;28;20174;-76
2023/09/09 12:22:47;;;;;;;4.97;3.78;;;34.00;99.90;;;;;;5071300;28;20264;-77
2023/09/09 12:25:33;;;;;;;7.97;4.15;;;33.90;99.90;;;;;;5074873;28;20567;-76
2023/09/09 12:27:59;;;;;;;5.25;3.85;;;33.90;99.90;;;;;;5070135;28;20176;-75
2023/09/09 12:30:31;;;;;;;7.55;3.90;;;34.10;99.90;;;;;;5070658;28;20174;-76
2023/09/09 12:33:03;;;;;;;7.20;4.60;;;34.30;99.90;;;;;;5070916;28;20175;-76
2023/09/09 12:35:52;;;;;;;9.35;4.20;;;34.50;99.90;;;;;;5070638;28;20526;-77
2023/09/09 12:38:19;;;;;;;12.70;4.10;;;34.50;99.90;;;;;;5069978;28;20291;-77
2023/09/09 12:40:48;;;;;;;8.20;4.25;;;34.60;99.90;;;;;;5070804;28;20170;-76